createdAt,value
2018-06-01T00:01:33.874Z,21.00
2018-06-01T00:05:27.017Z,20.90
2018-06-01T00:09:20.971Z,21.00
2018-06-01T00:13:14.143Z,21.00
2018-06-01T00:17:08.131Z,21.00
2018-06-01T00:21:01.841Z,21.00
2018-06-01T00:24:55.768Z,20.90
2018-06-01T00:28:49.092Z,20.90
2018-06-01T00:32:45.780Z,20.90
2018-06-01T00:36:38.983Z,20.70
2018-06-01T00:40:32.937Z,20.80
2018-06-01T00:44:26.453Z,20.80
2018-06-01T00:48:19.631Z,20.80
2018-06-01T00:52:13.686Z,20.60
2018-06-01T00:56:06.837Z,20.60
2018-06-01T01:00:00.087Z,20.60
2018-06-01T01:03:54.218Z,20.60
2018-06-01T01:07:47.636Z,20.50
2018-06-01T01:11:40.760Z,20.50
2018-06-01T01:15:34.661Z,20.40
2018-06-01T01:19:27.787Z,20.40
2018-06-01T01:23:20.955Z,20.40
2018-06-01T01:27:14.187Z,20.40
2018-06-01T01:31:07.331Z,20.40
2018-06-01T01:35:00.495Z,20.40
2018-06-01T01:38:53.615Z,20.40
2018-06-01T01:42:46.787Z,20.30
2018-06-01T01:46:40.122Z,20.40
2018-06-01T01:50:33.224Z,20.40
2018-06-01T01:54:27.342Z,20.30
2018-06-01T01:58:20.518Z,20.30
2018-06-01T02:02:13.764Z,20.40
2018-06-01T02:06:07.235Z,20.50
2018-06-01T02:10:00.550Z,20.60
2018-06-01T02:13:53.705Z,20.60
2018-06-01T02:17:46.851Z,20.80
2018-06-01T02:21:39.992Z,20.50
2018-06-01T02:25:33.199Z,20.40
2018-06-01T02:29:26.343Z,20.20
2018-06-01T02:33:19.483Z,20.20
2018-06-01T02:37:13.558Z,20.10
2018-06-01T02:41:06.755Z,20.10
2018-06-01T02:45:00.488Z,20.10
2018-06-01T02:48:55.922Z,20.10
2018-06-01T02:52:49.764Z,20.10
2018-06-01T02:56:42.953Z,20.10
2018-06-01T03:00:36.593Z,20.10
2018-06-01T03:04:29.797Z,20.10
2018-06-01T03:08:23.349Z,20.20
2018-06-01T03:12:16.624Z,20.20
2018-06-01T03:16:11.869Z,20.10
2018-06-01T03:20:05.808Z,20.00
2018-06-01T03:23:59.837Z,19.90
2018-06-01T03:27:53.759Z,19.90
2018-06-01T03:31:46.920Z,19.90
2018-06-01T03:35:40.568Z,20.00
2018-06-01T03:39:35.172Z,20.10
2018-06-01T03:43:28.359Z,20.10
2018-06-01T03:47:21.539Z,20.10
2018-06-01T03:51:14.656Z,20.20
2018-06-01T03:59:32.014Z,20.10
2018-06-01T04:03:25.280Z,20.20
2018-06-01T04:07:19.243Z,20.10
2018-06-01T04:11:12.926Z,20.10
2018-06-01T04:15:06.055Z,20.10
2018-06-01T04:18:59.454Z,20.10
2018-06-01T04:22:52.605Z,20.10
2018-06-01T04:26:45.765Z,20.10
2018-06-01T04:30:38.902Z,20.10
2018-06-01T04:34:32.103Z,20.20
2018-06-01T04:38:25.295Z,20.30
2018-06-01T04:42:19.173Z,20.40
2018-06-01T04:46:12.572Z,20.40
2018-06-01T04:50:09.667Z,20.50
2018-06-01T04:54:02.839Z,20.40
2018-06-01T04:57:56.459Z,20.30
2018-06-01T05:01:51.217Z,20.20
2018-06-01T05:05:44.867Z,20.40
2018-06-01T05:09:38.040Z,20.60
2018-06-01T05:13:31.161Z,20.70
2018-06-01T05:17:25.095Z,20.80
2018-06-01T05:21:18.772Z,20.80
2018-06-01T05:25:12.226Z,20.60
2018-06-01T05:29:05.361Z,20.70
2018-06-01T05:33:01.768Z,20.80
2018-06-01T05:36:55.026Z,20.80
2018-06-01T05:40:48.144Z,20.80
2018-06-01T05:44:41.272Z,20.70
2018-06-01T05:48:34.561Z,20.70
2018-06-01T05:52:28.495Z,20.50
2018-06-01T05:56:23.220Z,20.60
2018-06-01T06:00:16.457Z,20.60
2018-06-01T06:04:09.679Z,20.60
2018-06-01T06:08:03.236Z,20.60
2018-06-01T06:11:57.491Z,20.00
2018-06-01T06:15:50.891Z,20.00
2018-06-01T06:19:44.033Z,19.60
2018-06-01T06:23:37.203Z,19.30
2018-06-01T06:27:30.597Z,19.30
2018-06-01T06:31:24.418Z,19.00
2018-06-01T06:35:17.566Z,19.00
2018-06-01T06:39:11.601Z,19.10
2018-06-01T06:43:06.070Z,19.00
2018-06-01T06:46:59.197Z,19.00
2018-06-01T06:50:53.301Z,19.20
2018-06-01T06:54:47.223Z,19.30
2018-06-01T06:58:41.460Z,19.30
2018-06-01T07:02:34.677Z,19.20
2018-06-01T07:06:28.558Z,19.30
2018-06-01T07:10:21.692Z,19.50
2018-06-01T07:14:15.572Z,19.70
2018-06-01T07:18:09.780Z,19.70
2018-06-01T07:22:03.453Z,19.60
2018-06-01T07:25:57.241Z,19.50
2018-06-01T07:29:51.434Z,19.60
2018-06-01T07:33:44.585Z,19.50
2018-06-01T07:37:37.821Z,19.70
2018-06-01T07:41:31.035Z,19.70
2018-06-01T07:45:24.251Z,19.90
2018-06-01T07:49:17.536Z,20.00
2018-06-01T07:53:10.727Z,20.20
2018-06-01T07:57:03.904Z,20.20
2018-06-01T08:00:57.213Z,19.80
2018-06-01T08:04:51.747Z,19.60
2018-06-01T08:08:46.919Z,19.60
2018-06-01T08:12:41.552Z,19.50
2018-06-01T08:16:34.738Z,19.50
2018-06-01T08:20:27.887Z,19.50
2018-06-01T08:24:21.088Z,19.50
2018-06-01T08:28:14.227Z,19.70
2018-06-01T08:32:07.371Z,19.80
2018-06-01T08:36:00.931Z,19.90
2018-06-01T08:39:54.956Z,19.80
2018-06-01T08:43:48.448Z,19.70
2018-06-01T08:47:41.644Z,19.80
2018-06-01T08:51:34.849Z,19.90
2018-06-01T08:55:28.077Z,20.10
2018-06-01T08:59:21.252Z,20.20
2018-06-01T09:03:14.407Z,20.30
2018-06-01T09:07:07.884Z,20.30
2018-06-01T09:11:01.373Z,20.30
2018-06-01T09:14:54.966Z,20.30
2018-06-01T09:18:48.694Z,20.40
2018-06-01T09:22:41.976Z,20.40
2018-06-01T09:26:35.229Z,20.50
2018-06-01T09:30:28.343Z,20.60
2018-06-01T09:34:21.556Z,20.60
2018-06-01T09:38:14.760Z,20.60
2018-06-01T09:42:07.970Z,20.50
2018-06-01T09:46:01.206Z,20.40
2018-06-01T09:49:54.900Z,20.50
2018-06-01T09:53:48.142Z,20.60
2018-06-01T09:57:41.309Z,20.80
2018-06-01T10:01:34.486Z,20.90
2018-06-01T10:05:27.645Z,21.00
2018-06-01T10:09:25.560Z,21.00
2018-06-01T10:13:18.719Z,21.10
2018-06-01T10:17:12.599Z,21.20
2018-06-01T10:21:06.976Z,21.30
2018-06-01T10:25:04.740Z,21.30
2018-06-01T10:29:05.027Z,21.50
2018-06-01T10:33:02.118Z,21.80
2018-06-01T10:36:55.301Z,22.20
2018-06-01T10:40:49.298Z,22.40
2018-06-01T10:44:42.441Z,22.60
2018-06-01T10:48:35.621Z,22.90
2018-06-01T10:52:29.500Z,23.30
2018-06-01T10:56:24.941Z,23.90
2018-06-01T11:00:18.225Z,24.00
2018-06-01T11:04:11.441Z,24.30
2018-06-01T11:08:04.852Z,24.30
2018-06-01T11:11:58.062Z,24.40
2018-06-01T11:15:52.347Z,24.70
2018-06-01T11:19:45.596Z,24.90
2018-06-01T11:23:38.797Z,25.10
2018-06-01T11:27:32.554Z,25.80
2018-06-01T11:31:25.751Z,25.70
2018-06-01T11:35:18.935Z,26.00
2018-06-01T11:39:13.203Z,26.10
2018-06-01T11:43:07.080Z,25.90
2018-06-01T11:47:01.956Z,25.90
2018-06-01T11:50:55.226Z,26.00
2018-06-01T11:54:48.515Z,26.10
2018-06-01T11:58:50.998Z,26.60
2018-06-01T12:02:44.993Z,26.10
2018-06-01T12:06:46.126Z,26.00
2018-06-01T12:10:39.310Z,26.00
2018-06-01T12:14:34.641Z,26.10
2018-06-01T12:18:29.097Z,26.10
2018-06-01T12:22:23.010Z,26.20
2018-06-01T12:26:17.428Z,25.90
2018-06-01T12:30:12.169Z,26.40
2018-06-01T12:34:06.347Z,26.40
2018-06-01T12:38:00.601Z,26.80
2018-06-01T12:41:54.232Z,26.80
2018-06-01T12:45:48.368Z,26.40
2018-06-01T12:49:41.724Z,26.40
2018-06-01T12:53:34.870Z,26.40
2018-06-01T12:57:29.052Z,26.70
2018-06-01T13:01:22.984Z,26.80
2018-06-01T13:05:20.269Z,26.70
2018-06-01T13:09:13.628Z,26.40
2018-06-01T13:13:06.888Z,26.30
2018-06-01T13:17:02.431Z,26.70
2018-06-01T13:20:58.038Z,27.20
2018-06-01T13:24:51.575Z,27.30
2018-06-01T13:28:44.776Z,27.80
2018-06-01T13:32:38.487Z,27.80
2018-06-01T13:36:32.677Z,27.90
2018-06-01T13:40:26.585Z,27.60
2018-06-01T13:44:19.805Z,27.50
2018-06-01T13:48:12.977Z,27.40
2018-06-01T13:52:06.898Z,27.00
2018-06-01T13:56:01.669Z,26.40
2018-06-01T13:59:55.816Z,26.40
2018-06-01T14:03:49.123Z,26.10
2018-06-01T14:07:42.951Z,25.80
2018-06-01T14:11:36.378Z,25.90
2018-06-01T14:15:29.640Z,25.90
2018-06-01T14:19:23.327Z,25.90
2018-06-01T14:23:17.254Z,26.30
2018-06-01T14:27:10.479Z,26.30
2018-06-01T14:31:03.615Z,26.30
2018-06-01T14:34:56.788Z,26.00
2018-06-01T14:38:50.844Z,25.60
2018-06-01T14:42:43.987Z,25.40
2018-06-01T14:46:37.960Z,25.50
2018-06-01T14:50:31.153Z,25.40
2018-06-01T14:54:24.367Z,24.90
2018-06-01T14:58:17.454Z,24.60
2018-06-01T15:02:13.897Z,24.50
2018-06-01T15:06:08.090Z,24.40
2018-06-01T15:10:02.033Z,24.00
2018-06-01T15:13:55.218Z,23.70
2018-06-01T15:17:48.418Z,23.60
2018-06-01T15:21:42.255Z,23.30
2018-06-01T15:25:38.125Z,23.40
2018-06-01T15:29:32.150Z,23.10
2018-06-01T15:33:26.902Z,22.80
2018-06-01T15:37:20.079Z,22.50
2018-06-01T15:41:13.975Z,22.00
2018-06-01T15:45:07.188Z,21.60
2018-06-01T15:49:00.320Z,21.30
2018-06-01T15:52:53.517Z,21.10
2018-06-01T15:56:47.683Z,21.10
2018-06-01T16:00:40.819Z,21.10
2018-06-01T16:04:33.973Z,21.10
2018-06-01T16:08:27.639Z,21.00
2018-06-01T16:12:20.838Z,20.90
2018-06-01T16:16:14.147Z,20.80
2018-06-01T16:20:09.108Z,20.60
2018-06-01T16:24:02.497Z,20.60
2018-06-01T16:27:56.579Z,20.60
2018-06-01T16:31:51.129Z,20.60
2018-06-01T16:35:44.656Z,20.60
2018-06-01T16:39:38.478Z,20.70
2018-06-01T16:43:33.141Z,20.80
2018-06-01T16:47:30.271Z,20.80
2018-06-01T16:51:23.574Z,20.80
2018-06-01T16:55:17.463Z,20.80
2018-06-01T16:59:10.644Z,20.80
2018-06-01T17:03:03.789Z,20.70
2018-06-01T17:06:57.512Z,20.80
2018-06-01T17:10:51.908Z,20.80
2018-06-01T17:14:45.205Z,20.70
2018-06-01T17:18:38.573Z,20.60
2018-06-01T17:22:32.942Z,20.60
2018-06-01T17:26:26.422Z,20.60
2018-06-01T17:30:19.760Z,20.50
2018-06-01T17:34:13.092Z,20.50
2018-06-01T17:38:06.254Z,20.40
2018-06-01T17:41:59.452Z,20.40
2018-06-01T17:45:52.627Z,20.30
2018-06-01T17:49:45.782Z,20.20
2018-06-01T17:53:39.036Z,20.10
2018-06-01T17:57:32.271Z,20.10
2018-06-01T18:01:25.415Z,20.00
2018-06-01T18:05:18.553Z,19.80
2018-06-01T18:09:12.721Z,19.80
2018-06-01T18:13:05.947Z,19.80
2018-06-01T18:16:59.155Z,19.70
2018-06-01T18:20:54.156Z,19.60
2018-06-01T18:24:48.563Z,19.60
2018-06-01T18:28:43.355Z,19.60
2018-06-01T18:32:37.759Z,19.70
2018-06-01T18:36:31.011Z,19.70
2018-06-01T18:40:24.671Z,19.60
2018-06-01T18:44:18.159Z,19.50
2018-06-01T18:48:11.708Z,19.40
2018-06-01T18:52:04.934Z,19.40
2018-06-01T18:56:01.531Z,19.40
2018-06-01T18:59:55.000Z,19.40
2018-06-01T19:03:48.630Z,19.40
2018-06-01T19:07:42.654Z,19.40
2018-06-01T19:11:36.067Z,19.40
2018-06-01T19:15:30.096Z,19.40
2018-06-01T19:19:24.197Z,19.30
2018-06-01T19:23:18.401Z,19.40
2018-06-01T19:27:11.870Z,19.30
2018-06-01T19:31:05.765Z,19.20
2018-06-01T19:34:59.867Z,19.20
2018-06-01T19:38:53.836Z,19.20
2018-06-01T19:42:47.607Z,19.10
2018-06-01T19:46:40.717Z,19.10
2018-06-01T19:50:34.228Z,19.00
2018-06-01T19:54:27.376Z,19.10
2018-06-01T19:58:20.657Z,19.00
2018-06-01T20:02:13.801Z,19.00
2018-06-01T20:06:08.183Z,19.00
2018-06-01T20:10:01.459Z,19.00
2018-06-01T20:13:54.582Z,19.00
2018-06-01T20:17:47.949Z,19.10
2018-06-01T20:21:41.523Z,19.00
2018-06-01T20:25:35.472Z,18.90
2018-06-01T20:29:29.965Z,18.90
2018-06-01T20:33:23.202Z,18.90
2018-06-01T20:37:17.203Z,18.90
2018-06-01T20:45:22.225Z,18.70
2018-06-01T20:49:16.353Z,18.60
2018-06-01T20:53:09.624Z,18.60
2018-06-01T20:57:02.795Z,18.60
2018-06-01T21:00:56.009Z,18.60
2018-06-01T21:04:51.898Z,18.70
2018-06-01T21:08:47.703Z,18.60
2018-06-01T21:12:40.927Z,18.70
2018-06-01T21:16:34.954Z,18.70
2018-06-01T21:20:28.083Z,18.70
2018-06-01T21:24:21.237Z,18.60
2018-06-01T21:28:14.787Z,18.70
2018-06-01T21:32:07.903Z,18.60
2018-06-01T21:36:01.034Z,18.60
2018-06-01T21:39:55.185Z,18.60
2018-06-01T21:43:48.638Z,18.70
2018-06-01T21:47:41.909Z,18.90
2018-06-01T21:51:35.092Z,18.80
2018-06-01T21:55:27.763Z,18.60
2018-06-01T21:59:20.888Z,18.60
2018-06-01T22:03:14.108Z,18.60
2018-06-01T22:07:07.377Z,18.60
2018-06-01T22:11:01.179Z,18.50
2018-06-01T22:14:54.339Z,18.50
2018-06-01T22:18:48.331Z,18.60
2018-06-01T22:22:41.472Z,18.60
2018-06-01T22:26:34.655Z,18.70
2018-06-01T22:30:29.101Z,18.70
2018-06-01T22:34:22.340Z,18.70
2018-06-01T22:38:15.525Z,18.70
2018-06-01T22:42:08.664Z,18.70
2018-06-01T22:46:01.907Z,18.70
2018-06-01T22:49:55.021Z,18.70
2018-06-01T22:53:48.158Z,18.60
2018-06-01T22:57:42.143Z,18.50
2018-06-01T23:01:35.495Z,18.50
2018-06-01T23:05:28.713Z,18.50
2018-06-01T23:09:21.831Z,18.50
2018-06-01T23:13:15.782Z,18.50
2018-06-01T23:17:08.674Z,18.50
2018-06-01T23:21:02.559Z,18.50
2018-06-01T23:24:55.686Z,18.50
2018-06-01T23:28:48.806Z,18.50
2018-06-01T23:32:41.945Z,18.40
2018-06-01T23:36:35.020Z,18.40
2018-06-01T23:40:28.915Z,18.30
2018-06-01T23:44:22.096Z,18.20
2018-06-01T23:48:15.225Z,18.30
2018-06-01T23:52:09.176Z,18.30
2018-06-01T23:56:03.192Z,18.40
2018-06-01T23:59:57.924Z,18.40
